Time;durP1;ratioP1;P1;durP2;ratioP2;P2;SDS_P1;SDS_P2;PMS_P1;PMS_P2;Temp;Humidity;BMP_temperature;BMP_pressure;BME280_temperature;BME280_humidity;BME280_pressure;Samples;Min_cycle;Max_cycle;Signal;HPM_P1;HPM_P2
2023/07/26 00:00:19;;;;;;;7.88;2.40;;;13.10;99.90;;;;;;4992754;28;20430;-84
2023/07/26 00:02:44;;;;;;;7.65;2.42;;;13.10;99.90;;;;;;4992002;28;20034;-84
2023/07/26 00:05:10;;;;;;;6.60;2.60;;;13.10;99.90;;;;;;4992716;28;20510;-85
2023/07/26 00:07:35;;;;;;;8.27;4.50;;;13.10;99.90;;;;;;4992984;28;20045;-84
2023/07/26 00:10:01;;;;;;;8.05;4.20;;;13.10;99.90;;;;;;4993429;28;20038;-84
2023/07/26 00:12:27;;;;;;;6.20;2.40;;;13.20;99.90;;;;;;4993476;28;20092;-84
2023/07/26 00:14:53;;;;;;;8.48;3.35;;;13.20;99.90;;;;;;4993397;28;20046;-84
2023/07/26 00:17:19;;;;;;;6.25;2.60;;;13.20;99.90;;;;;;4993042;28;20073;-84
2023/07/26 00:19:44;;;;;;;8.95;4.80;;;13.10;99.90;;;;;;4977114;28;20085;-84
2023/07/26 00:22:10;;;;;;;7.30;2.70;;;13.20;99.90;;;;;;4976875;28;20038;-84
2023/07/26 00:24:36;;;;;;;7.43;2.97;;;13.20;99.90;;;;;;4992970;28;20564;-84
2023/07/26 00:27:01;;;;;;;9.45;5.15;;;13.20;99.90;;;;;;4992872;28;20046;-84
2023/07/26 00:29:27;;;;;;;8.18;3.45;;;13.20;99.90;;;;;;4993101;28;20038;-84
2023/07/26 00:31:53;;;;;;;9.82;3.17;;;13.20;99.90;;;;;;4976999;28;20052;-85
2023/07/26 00:34:19;;;;;;;9.02;3.78;;;13.20;99.90;;;;;;4993446;28;20427;-85
2023/07/26 00:36:44;;;;;;;6.28;2.72;;;13.20;99.90;;;;;;4993102;28;20517;-85
2023/07/26 00:39:11;;;;;;;9.32;3.15;;;13.20;99.90;;;;;;4993453;28;20046;-85
2023/07/26 00:41:36;;;;;;;8.98;5.25;;;13.20;99.90;;;;;;4976352;28;20041;-85
2023/07/26 00:44:03;;;;;;;6.57;2.67;;;13.30;99.90;;;;;;4992843;28;20045;-85
2023/07/26 00:46:29;;;;;;;7.47;2.88;;;13.30;99.90;;;;;;4980214;28;20042;-84
2023/07/26 00:48:55;;;;;;;7.13;3.15;;;13.20;99.90;;;;;;4980316;28;20034;-84
2023/07/26 00:51:21;;;;;;;9.38;5.22;;;13.20;99.90;;;;;;4980401;28;20052;-85
2023/07/26 00:53:47;;;;;;;7.40;3.20;;;13.30;99.90;;;;;;4980787;28;20046;-85
2023/07/26 00:56:13;;;;;;;9.93;3.28;;;13.30;99.90;;;;;;4996867;28;20041;-85
2023/07/26 00:58:40;;;;;;;8.73;5.18;;;13.30;99.90;;;;;;4980752;28;20038;-85
2023/07/26 01:01:05;;;;;;;6.82;2.70;;;13.30;99.90;;;;;;4995509;28;20411;-85
2023/07/26 01:03:31;;;;;;;8.30;3.00;;;13.40;99.90;;;;;;4995996;28;20491;-85
2023/07/26 01:06:06;;;;;;;9.82;3.38;;;13.30;99.90;;;;;;4979374;28;20037;-85
2023/07/26 01:08:41;;;;;;;8.65;3.67;;;13.30;99.90;;;;;;4996310;28;20046;-85
2023/07/26 01:11:16;;;;;;;6.47;2.78;;;13.30;99.90;;;;;;4980052;28;20049;-85
2023/07/26 01:14:05;;;;;;;9.55;5.43;;;13.30;99.90;;;;;;4980017;28;20430;-85
2023/07/26 01:16:31;;;;;;;9.68;5.43;;;13.40;99.90;;;;;;4996156;28;20038;-85
2023/07/26 01:18:57;;;;;;;8.40;2.67;;;13.50;99.90;;;;;;4996569;28;20465;-85
2023/07/26 01:21:23;;;;;;;6.53;3.20;;;13.50;99.90;;;;;;4995360;28;20128;-85
2023/07/26 01:23:48;;;;;;;13.73;3.60;;;13.40;99.90;;;;;;4995277;28;20095;-85
2023/07/26 01:26:14;;;;;;;7.18;3.17;;;13.40;99.90;;;;;;4995336;28;20525;-85
2023/07/26 01:28:40;;;;;;;8.95;3.50;;;13.40;99.90;;;;;;4995875;28;20121;-85
2023/07/26 01:31:08;;;;;;;10.30;5.75;;;13.40;99.90;;;;;;4996163;28;20103;-83
2023/07/26 01:33:36;;;;;;;11.23;3.47;;;13.50;99.90;;;;;;4980117;28;20056;-83
2023/07/26 01:36:04;;;;;;;11.15;3.63;;;13.40;99.90;;;;;;4995967;28;20495;-84
2023/07/26 01:38:30;;;;;;;8.85;4.80;;;13.40;99.90;;;;;;4996255;28;20569;-84
2023/07/26 01:40:58;;;;;;;8.40;3.30;;;13.40;99.90;;;;;;4995550;28;20030;-85
2023/07/26 01:43:24;;;;;;;6.68;3.00;;;13.40;99.90;;;;;;4978688;28;20038;-85
2023/07/26 01:45:50;;;;;;;8.18;5.53;;;13.40;99.90;;;;;;4995571;28;20446;-85
2023/07/26 01:48:16;;;;;;;6.85;2.92;;;13.40;99.90;;;;;;4995861;28;20503;-85
2023/07/26 01:50:41;;;;;;;7.78;3.55;;;13.40;99.90;;;;;;4995863;28;20466;-85
2023/07/26 01:53:07;;;;;;;8.65;3.55;;;13.40;99.90;;;;;;4995118;28;20041;-85
2023/07/26 01:55:32;;;;;;;8.32;3.67;;;13.40;99.90;;;;;;4995157;28;20451;-85
2023/07/26 01:57:58;;;;;;;6.93;3.00;;;13.40;99.90;;;;;;4996002;28;20571;-85
2023/07/26 02:00:24;;;;;;;8.27;3.70;;;13.30;99.90;;;;;;4995547;28;20510;-85
2023/07/26 02:02:49;;;;;;;7.78;3.08;;;13.30;99.90;;;;;;4994408;28;20037;-85
2023/07/26 02:05:16;;;;;;;7.28;3.30;;;13.30;99.90;;;;;;4994815;28;20038;-85
2023/07/26 02:07:42;;;;;;;10.93;6.22;;;13.30;99.90;;;;;;4978855;28;20042;-85
2023/07/26 02:10:08;;;;;;;8.48;3.45;;;13.30;99.90;;;;;;4995656;28;20038;-85
2023/07/26 02:12:34;;;;;;;11.43;5.90;;;13.30;99.90;;;;;;4979121;28;20038;-85
2023/07/26 02:14:59;;;;;;;8.93;3.58;;;13.30;99.90;;;;;;4978871;28;20042;-85
2023/07/26 02:17:25;;;;;;;8.65;3.78;;;13.30;99.90;;;;;;4978815;28;20499;-85
2023/07/26 02:19:51;;;;;;;7.45;3.05;;;13.20;99.90;;;;;;4979106;28;20061;-85
2023/07/26 02:22:16;;;;;;;8.07;3.45;;;13.20;99.90;;;;;;4994750;28;20030;-85
2023/07/26 02:24:42;;;;;;;8.43;3.17;;;13.10;99.90;;;;;;4978611;28;20049;-85
2023/07/26 02:27:08;;;;;;;7.70;3.03;;;13.10;99.90;;;;;;4978448;28;20042;-84
2023/07/26 02:29:34;;;;;;;10.02;3.03;;;13.10;99.90;;;;;;4978556;28;20037;-84
2023/07/26 02:32:00;;;;;;;9.38;5.85;;;13.00;99.90;;;;;;4994568;28;20034;-84
2023/07/26 02:34:25;;;;;;;9.25;3.40;;;13.00;99.90;;;;;;4994580;28;20474;-84
2023/07/26 02:36:51;;;;;;;6.18;2.80;;;13.10;99.90;;;;;;4994516;28;20124;-84
2023/07/26 02:39:18;;;;;;;7.22;3.00;;;13.00;99.90;;;;;;4995180;28;20030;-84
2023/07/26 02:41:43;;;;;;;8.40;5.40;;;12.90;99.90;;;;;;4978173;28;20480;-84
2023/07/26 02:44:09;;;;;;;6.93;3.17;;;13.00;99.90;;;;;;4977894;28;20077;-84
2023/07/26 02:46:35;;;;;;;6.78;2.60;;;12.90;99.90;;;;;;4994416;28;20041;-85
2023/07/26 02:49:00;;;;;;;5.53;2.47;;;12.90;99.90;;;;;;4994405;28;20549;-84
2023/07/26 02:51:26;;;;;;;10.70;3.10;;;12.80;99.90;;;;;;4994212;28;20466;-85
2023/07/26 02:53:52;;;;;;;7.00;2.60;;;12.80;99.90;;;;;;4978215;28;20072;-84
2023/07/26 02:56:17;;;;;;;6.78;3.30;;;12.70;99.90;;;;;;4978244;28;20481;-85
2023/07/26 02:58:43;;;;;;;6.78;3.03;;;12.70;99.90;;;;;;4994789;28;20042;-85
2023/07/26 03:01:08;;;;;;;9.32;5.07;;;12.70;99.90;;;;;;4993881;28;20103;-85
2023/07/26 03:03:34;;;;;;;8.23;4.93;;;12.70;99.90;;;;;;4977252;28;20445;-85
2023/07/26 03:06:00;;;;;;;8.80;2.83;;;12.70;99.90;;;;;;4993701;28;20125;-85
2023/07/26 03:08:26;;;;;;;7.97;2.80;;;12.60;99.90;;;;;;4976734;28;20049;-84
2023/07/26 03:10:52;;;;;;;6.30;2.78;;;12.60;99.90;;;;;;4977995;28;20046;-85
2023/07/26 03:13:18;;;;;;;6.10;2.47;;;12.50;99.90;;;;;;4977583;28;20034;-85
2023/07/26 03:15:44;;;;;;;7.55;2.65;;;12.50;99.90;;;;;;4977944;28;20087;-84
2023/07/26 03:18:10;;;;;;;8.77;2.90;;;12.50;99.90;;;;;;4977582;28;20073;-85
2023/07/26 03:20:36;;;;;;;7.30;2.70;;;12.50;99.90;;;;;;4993700;28;20073;-83
2023/07/26 03:23:01;;;;;;;9.15;4.75;;;12.40;99.90;;;;;;4993564;28;20042;-83
2023/07/26 03:25:27;;;;;;;5.63;2.55;;;12.50;99.90;;;;;;4993934;28;20046;-83
2023/07/26 03:27:53;;;;;;;6.05;2.60;;;12.40;99.90;;;;;;4977122;28;20038;-83
2023/07/26 03:30:19;;;;;;;7.55;2.70;;;12.40;99.90;;;;;;4993610;28;20103;-84
2023/07/26 03:32:44;;;;;;;9.23;2.92;;;12.30;99.90;;;;;;4993150;28;20053;-84
2023/07/26 03:35:10;;;;;;;6.57;2.72;;;12.20;99.90;;;;;;4993705;28;20075;-84
2023/07/26 03:37:35;;;;;;;6.72;2.40;;;12.20;99.90;;;;;;4993800;28;20029;-84
2023/07/26 03:40:01;;;;;;;7.93;4.63;;;12.10;99.90;;;;;;4993509;28;20550;-84
2023/07/26 03:42:27;;;;;;;8.13;3.13;;;12.20;99.90;;;;;;4993111;28;20553;-84
2023/07/26 03:44:53;;;;;;;5.72;2.40;;;12.10;99.90;;;;;;4992978;28;20565;-84
2023/07/26 03:47:19;;;;;;;8.52;4.78;;;12.10;99.90;;;;;;4993740;28;20046;-84
2023/07/26 03:49:44;;;;;;;7.38;2.88;;;12.10;99.90;;;;;;4977723;28;20533;-84
2023/07/26 03:52:10;;;;;;;6.50;2.80;;;12.10;99.90;;;;;;4993411;28;20038;-84
2023/07/26 03:54:36;;;;;;;10.35;5.50;;;12.00;99.90;;;;;;4993462;28;20046;-84
2023/07/26 03:57:02;;;;;;;6.75;2.65;;;12.10;99.90;;;;;;4977293;28;20038;-84
2023/07/26 03:59:27;;;;;;;8.48;5.10;;;12.10;99.90;;;;;;4992980;28;20044;-85
2023/07/26 04:01:53;;;;;;;7.05;2.53;;;12.10;99.90;;;;;;4992317;28;20033;-85
2023/07/26 04:04:19;;;;;;;6.65;2.85;;;12.10;99.90;;;;;;4976930;28;20049;-85
2023/07/26 04:06:44;;;;;;;9.40;3.00;;;12.00;99.90;;;;;;4993586;28;20121;-85
2023/07/26 04:09:10;;;;;;;6.93;2.90;;;12.00;99.90;;;;;;4993720;28;20041;-84
2023/07/26 04:11:36;;;;;;;8.65;5.13;;;12.00;99.90;;;;;;4993079;28;20121;-85
2023/07/26 04:14:01;;;;;;;6.90;2.60;;;12.00;99.90;;;;;;4993261;28;20124;-85
2023/07/26 04:16:27;;;;;;;7.07;2.75;;;12.00;99.90;;;;;;4993181;28;20495;-85
2023/07/26 04:18:53;;;;;;;5.93;2.13;;;11.90;99.90;;;;;;4978462;28;20531;-84
2023/07/26 04:21:20;;;;;;;7.82;3.00;;;11.90;99.90;;;;;;4996717;28;20037;-85
2023/07/26 04:23:46;;;;;;;7.72;2.70;;;11.90;99.90;;;;;;4996435;28;20458;-84
2023/07/26 04:26:12;;;;;;;7.82;2.90;;;11.90;99.90;;;;;;4996660;28;20499;-85
2023/07/26 04:28:39;;;;;;;7.72;3.20;;;11.90;99.90;;;;;;4981454;28;20581;-83
2023/07/26 04:31:07;;;;;;;8.95;4.90;;;11.90;99.90;;;;;;4981211;28;20408;-85
2023/07/26 04:33:33;;;;;;;8.90;3.30;;;12.00;99.90;;;;;;5014496;28;20072;-84
2023/07/26 04:35:59;;;;;;;7.07;3.00;;;12.10;99.90;;;;;;5014441;28;20388;-85
2023/07/26 04:38:27;;;;;;;8.60;2.75;;;12.10;99.90;;;;;;4996892;28;20518;-85
2023/07/26 04:40:53;;;;;;;8.35;3.60;;;12.10;99.90;;;;;;4996420;28;20045;-85
2023/07/26 04:43:21;;;;;;;6.82;2.92;;;12.10;99.90;;;;;;4995925;28;20418;-85
2023/07/26 04:45:49;;;;;;;10.07;6.20;;;12.10;99.90;;;;;;4980112;28;20487;-85
2023/07/26 04:48:15;;;;;;;7.90;5.47;;;12.20;99.90;;;;;;4980713;28;20039;-85
2023/07/26 04:50:42;;;;;;;6.78;2.53;;;12.30;99.90;;;;;;4996663;28;20041;-85
2023/07/26 04:53:07;;;;;;;7.40;2.85;;;12.30;99.90;;;;;;4996549;28;20034;-85
2023/07/26 04:55:42;;;;;;;9.65;5.82;;;12.30;99.90;;;;;;4996491;28;20057;-85
2023/07/26 04:58:07;;;;;;;7.18;3.03;;;12.40;99.90;;;;;;4961004;28;20034;-84
2023/07/26 05:00:33;;;;;;;7.70;3.10;;;12.40;99.90;;;;;;4960832;28;20052;-84
2023/07/26 05:02:58;;;;;;;10.93;3.67;;;12.40;99.90;;;;;;4959983;28;20526;-84
2023/07/26 05:05:24;;;;;;;7.80;2.70;;;12.30;99.90;;;;;;4976551;28;20042;-83
2023/07/26 05:07:50;;;;;;;7.85;3.33;;;12.30;99.90;;;;;;4977100;28;20438;-84
2023/07/26 05:10:15;;;;;;;8.35;5.80;;;12.40;99.90;;;;;;4977091;28;20053;-84
2023/07/26 05:12:41;;;;;;;7.55;2.92;;;12.50;99.90;;;;;;4976609;28;20053;-83
2023/07/26 05:15:07;;;;;;;7.43;2.92;;;12.50;99.90;;;;;;4960188;28;20042;-83
2023/07/26 05:17:33;;;;;;;9.70;3.28;;;12.50;99.90;;;;;;4976731;28;20533;-84
2023/07/26 05:19:59;;;;;;;9.25;3.90;;;12.50;99.90;;;;;;4960676;28;20046;-84
2023/07/26 05:22:24;;;;;;;9.88;6.20;;;12.50;99.90;;;;;;4976579;28;20042;-84
2023/07/26 05:24:50;;;;;;;9.13;3.50;;;12.60;99.90;;;;;;4960487;28;20113;-84
2023/07/26 05:27:16;;;;;;;9.48;3.40;;;12.60;99.90;;;;;;4976581;28;20049;-84
2023/07/26 05:29:41;;;;;;;7.03;3.65;;;12.60;99.90;;;;;;4975909;28;20049;-84
2023/07/26 05:32:07;;;;;;;11.05;6.30;;;12.60;99.90;;;;;;4959970;28;20042;-84
2023/07/26 05:34:35;;;;;;;9.15;3.35;;;12.70;99.90;;;;;;4959327;28;20140;-84
2023/07/26 05:37:01;;;;;;;9.93;6.70;;;12.70;99.90;;;;;;4975811;28;20070;-84
2023/07/26 05:39:27;;;;;;;7.63;3.67;;;12.80;99.90;;;;;;4975864;28;20042;-84
2023/07/26 05:41:53;;;;;;;11.55;3.50;;;12.90;99.90;;;;;;4960285;28;20053;-84
2023/07/26 05:44:18;;;;;;;8.32;4.20;;;12.90;99.90;;;;;;4975791;28;20554;-84
2023/07/26 05:46:44;;;;;;;11.38;7.50;;;13.00;99.90;;;;;;4960360;28;20042;-84
2023/07/26 05:49:10;;;;;;;11.50;7.43;;;13.00;99.90;;;;;;4976463;28;20503;-84
2023/07/26 05:51:35;;;;;;;8.55;3.83;;;13.20;99.90;;;;;;4975792;28;20046;-84
2023/07/26 05:54:01;;;;;;;9.80;3.25;;;13.20;99.90;;;;;;4975533;28;20038;-84
2023/07/26 05:56:27;;;;;;;10.82;3.47;;;13.20;99.90;;;;;;4958996;28;20049;-84
2023/07/26 05:58:52;;;;;;;7.55;3.70;;;13.20;99.90;;;;;;4975789;28;20038;-84
2023/07/26 06:01:18;;;;;;;11.13;4.03;;;13.30;99.90;;;;;;4974963;28;20530;-84
2023/07/26 06:03:44;;;;;;;12.00;6.72;;;13.30;99.90;;;;;;4975908;28;20084;-84
2023/07/26 06:06:10;;;;;;;10.45;7.57;;;13.40;99.90;;;;;;4975590;28;20054;-84
2023/07/26 06:08:35;;;;;;;9.57;4.68;;;13.50;99.90;;;;;;4976052;28;20039;-84
2023/07/26 06:11:01;;;;;;;8.88;4.30;;;13.50;99.90;;;;;;4960026;28;20049;-83
2023/07/26 06:13:27;;;;;;;10.20;6.60;;;13.50;99.90;;;;;;4975786;28;20042;-83
2023/07/26 06:15:52;;;;;;;9.38;3.88;;;13.60;99.90;;;;;;4974885;28;20129;-84
2023/07/26 06:18:19;;;;;;;8.68;4.05;;;13.60;99.90;;;;;;4975652;28;20034;-84
2023/07/26 06:20:45;;;;;;;12.90;7.45;;;13.60;99.90;;;;;;4975773;28;20050;-84
2023/07/26 06:23:11;;;;;;;12.07;7.50;;;13.70;99.90;;;;;;4975383;28;20039;-84
2023/07/26 06:25:36;;;;;;;11.18;7.35;;;13.70;99.90;;;;;;4975375;28;20042;-85
2023/07/26 06:28:02;;;;;;;9.93;4.18;;;13.80;99.90;;;;;;4974142;28;20044;-85
2023/07/26 06:30:28;;;;;;;7.90;3.92;;;13.70;99.90;;;;;;4974871;28;20049;-85
2023/07/26 06:32:53;;;;;;;8.38;3.80;;;13.70;99.90;;;;;;4975200;28;20049;-84
2023/07/26 06:35:19;;;;;;;8.98;3.70;;;13.70;99.90;;;;;;4974290;28;20042;-85
2023/07/26 06:37:45;;;;;;;8.77;4.35;;;13.60;99.90;;;;;;4973333;28;20038;-85
2023/07/26 06:40:11;;;;;;;9.30;4.43;;;13.70;99.90;;;;;;4972759;28;20034;-85
2023/07/26 06:42:36;;;;;;;10.10;4.85;;;13.70;99.90;;;;;;4967031;28;20121;-84
2023/07/26 06:45:03;;;;;;;10.27;7.28;;;13.70;99.90;;;;;;4958747;28;20120;-84
2023/07/26 06:47:29;;;;;;;9.15;4.53;;;13.80;99.90;;;;;;4973239;28;20047;-85
2023/07/26 06:49:54;;;;;;;7.85;3.63;;;13.80;99.90;;;;;;4957817;28;20092;-84
2023/07/26 06:52:20;;;;;;;10.32;7.25;;;13.70;99.90;;;;;;4974254;28;20042;-85
2023/07/26 06:54:46;;;;;;;7.60;4.07;;;13.80;99.90;;;;;;4961171;28;20425;-84
2023/07/26 06:57:11;;;;;;;8.70;4.05;;;13.80;99.90;;;;;;4980199;28;20038;-84
2023/07/26 06:59:37;;;;;;;9.50;5.05;;;13.70;99.90;;;;;;4958569;28;20727;-85
2023/07/26 07:02:06;;;;;;;11.43;8.77;;;13.80;99.90;;;;;;4991612;28;20064;-85
2023/07/26 07:04:35;;;;;;;9.20;5.47;;;13.90;99.90;;;;;;4991929;28;20472;-84
2023/07/26 07:07:00;;;;;;;10.30;7.72;;;13.90;99.90;;;;;;4974085;28;20049;-85
2023/07/26 07:09:26;;;;;;;12.68;5.70;;;13.90;99.90;;;;;;4958427;28;20039;-83
2023/07/26 07:11:52;;;;;;;12.25;5.45;;;14.00;99.90;;;;;;4958643;28;20129;-82
2023/07/26 07:14:18;;;;;;;9.85;4.53;;;14.00;99.90;;;;;;4958146;28;20121;-82
2023/07/26 07:16:44;;;;;;;10.95;8.75;;;14.00;99.90;;;;;;4974236;28;20508;-83
2023/07/26 07:19:09;;;;;;;9.20;4.72;;;14.20;99.90;;;;;;4974523;28;20042;-83
2023/07/26 07:21:35;;;;;;;11.95;8.60;;;14.20;99.90;;;;;;4974587;28;20034;-83
2023/07/26 07:24:01;;;;;;;10.55;5.10;;;14.30;99.90;;;;;;4979684;28;20127;-83
2023/07/26 07:26:26;;;;;;;11.43;8.32;;;14.30;99.90;;;;;;4990879;28;20100;-83
2023/07/26 07:28:52;;;;;;;10.35;8.30;;;14.40;99.90;;;;;;4986241;28;20113;-83
2023/07/26 07:31:18;;;;;;;9.20;4.65;;;14.40;99.90;;;;;;4992309;28;20069;-83
2023/07/26 07:33:43;;;;;;;8.52;4.25;;;14.40;99.90;;;;;;4977545;28;20049;-84
2023/07/26 07:36:10;;;;;;;9.90;5.45;;;14.30;99.90;;;;;;4993057;28;20414;-85
2023/07/26 07:38:35;;;;;;;11.95;9.00;;;14.30;99.90;;;;;;4993249;28;20041;-84
2023/07/26 07:41:01;;;;;;;12.07;9.15;;;14.40;99.90;;;;;;4977368;28;20099;-84
2023/07/26 07:43:27;;;;;;;10.88;5.28;;;14.50;99.90;;;;;;4977267;28;20491;-85
2023/07/26 07:45:52;;;;;;;12.40;6.63;;;14.40;99.90;;;;;;4992734;28;20203;-85
2023/07/26 07:48:18;;;;;;;13.00;7.75;;;14.40;99.90;;;;;;4993628;28;20220;-85
2023/07/26 07:50:44;;;;;;;13.07;10.80;;;14.40;99.90;;;;;;4993825;28;20535;-85
2023/07/26 07:53:10;;;;;;;11.77;6.55;;;14.40;99.90;;;;;;4993100;28;20034;-85
2023/07/26 07:55:40;;;;;;;9.15;4.90;;;14.40;99.90;;;;;;4992794;28;20121;-84
2023/07/26 07:58:05;;;;;;;9.52;4.07;;;14.40;99.90;;;;;;4993426;28;20046;-84
2023/07/26 08:00:31;;;;;;;13.60;8.52;;;14.40;99.90;;;;;;4977214;28;20125;-84
2023/07/26 08:02:57;;;;;;;11.48;7.88;;;14.40;99.90;;;;;;4992763;28;20041;-84
2023/07/26 08:05:23;;;;;;;7.13;3.92;;;14.40;99.90;;;;;;4981223;28;20514;-84
2023/07/26 08:07:51;;;;;;;7.22;2.17;;;14.30;99.90;;;;;;4983551;28;20074;-84
2023/07/26 08:10:17;;;;;;;6.88;2.85;;;14.20;99.90;;;;;;4982705;28;20445;-85
2023/07/26 08:12:42;;;;;;;8.32;5.68;;;14.10;99.90;;;;;;4982766;28;20038;-85
2023/07/26 08:15:08;;;;;;;8.05;3.63;;;14.20;99.90;;;;;;4983570;28;20050;-85
2023/07/26 08:17:34;;;;;;;11.27;6.72;;;14.20;99.90;;;;;;4981532;28;20119;-84
2023/07/26 08:20:00;;;;;;;10.43;4.78;;;14.30;99.90;;;;;;4967075;28;20042;-84
2023/07/26 08:22:25;;;;;;;12.18;8.20;;;14.30;99.90;;;;;;4967188;28;20042;-84
2023/07/26 08:24:52;;;;;;;10.65;7.47;;;14.30;99.90;;;;;;4965571;28;20042;-84
2023/07/26 08:27:18;;;;;;;8.27;4.20;;;14.40;99.90;;;;;;4982732;28;20449;-84
2023/07/26 08:29:43;;;;;;;9.60;7.35;;;14.40;99.90;;;;;;4967070;28;20517;-85
2023/07/26 08:32:09;;;;;;;10.07;7.18;;;14.50;99.90;;;;;;4982037;28;20057;-84
2023/07/26 08:34:34;;;;;;;10.13;6.05;;;14.60;99.90;;;;;;4983380;28;20038;-84
2023/07/26 08:37:00;;;;;;;7.63;2.97;;;14.60;99.90;;;;;;4984203;28;20026;-85
2023/07/26 08:39:26;;;;;;;8.15;4.47;;;14.60;99.90;;;;;;4982579;28;20034;-84
2023/07/26 08:41:51;;;;;;;8.40;2.60;;;14.60;99.90;;;;;;4968591;28;20096;-84
2023/07/26 08:44:17;;;;;;;7.05;2.65;;;14.60;99.90;;;;;;4993427;28;20192;-85
2023/07/26 08:46:45;;;;;;;7.35;3.30;;;14.70;99.90;;;;;;4992752;28;20042;-84
2023/07/26 08:49:12;;;;;;;4.25;1.77;;;14.90;99.90;;;;;;4976455;28;20049;-84
2023/07/26 08:51:40;;;;;;;6.80;2.90;;;15.00;99.90;;;;;;4976013;28;20044;-84
2023/07/26 08:54:06;;;;;;;5.70;2.60;;;15.10;99.90;;;;;;4991783;28;20445;-85
2023/07/26 08:56:32;;;;;;;4.70;1.80;;;15.20;99.90;;;;;;4991592;28;20037;-84
2023/07/26 08:58:59;;;;;;;4.78;1.88;;;15.20;99.90;;;;;;4976889;28;20445;-84
2023/07/26 09:01:27;;;;;;;4.68;1.58;;;15.20;99.90;;;;;;4992666;28;20130;-84
2023/07/26 09:03:53;;;;;;;5.00;1.52;;;15.40;99.90;;;;;;4989040;28;20038;-84
2023/07/26 09:06:19;;;;;;;5.68;2.38;;;15.50;99.90;;;;;;4974885;28;20082;-84
2023/07/26 09:08:46;;;;;;;4.45;1.58;;;15.60;99.90;;;;;;4977003;28;20073;-85
2023/07/26 09:11:26;;;;;;;5.70;2.60;;;15.70;99.90;;;;;;4976558;28;20100;-84
2023/07/26 09:13:57;;;;;;;6.15;2.00;;;15.90;99.90;;;;;;4985001;28;20080;-84
2023/07/26 09:16:27;;;;;;;5.65;2.42;;;16.00;99.90;;;;;;4967766;28;20137;-84
2023/07/26 09:18:56;;;;;;;6.32;2.45;;;16.10;99.90;;;;;;4985585;28;20034;-84
2023/07/26 09:21:30;;;;;;;6.32;2.78;;;16.20;99.90;;;;;;4971169;28;20044;-84
2023/07/26 09:23:57;;;;;;;4.93;1.92;;;16.30;99.90;;;;;;5003560;28;20405;-84
2023/07/26 09:26:41;;;;;;;6.13;2.70;;;16.40;99.90;;;;;;4970820;28;20038;-84
2023/07/26 09:29:10;;;;;;;5.78;2.63;;;16.40;99.90;;;;;;4970531;28;20038;-84
2023/07/26 09:31:38;;;;;;;7.80;3.10;;;16.50;99.90;;;;;;4985702;28;20042;-84
2023/07/26 09:34:07;;;;;;;4.90;2.05;;;16.60;99.90;;;;;;4968218;28;20287;-84
2023/07/26 09:36:45;;;;;;;7.95;3.47;;;16.60;99.90;;;;;;4984876;28;20038;-84
2023/07/26 09:39:12;;;;;;;7.47;3.75;;;16.70;99.90;;;;;;5001212;28;20113;-84
2023/07/26 09:41:38;;;;;;;7.53;3.47;;;16.80;99.90;;;;;;4971307;28;20041;-84
2023/07/26 09:44:05;;;;;;;7.53;3.63;;;16.90;99.90;;;;;;4968356;28;20525;-84
2023/07/26 09:46:50;;;;;;;6.63;2.92;;;16.90;99.90;;;;;;4985582;28;20411;-84
2023/07/26 09:49:18;;;;;;;9.10;3.95;;;16.90;99.90;;;;;;4993799;28;20042;-84
2023/07/26 09:51:44;;;;;;;7.53;4.25;;;16.90;99.90;;;;;;4984226;28;20050;-84
2023/07/26 09:54:10;;;;;;;7.10;3.78;;;17.10;99.90;;;;;;4985899;28;20084;-84
2023/07/26 09:56:39;;;;;;;7.10;2.47;;;17.10;99.90;;;;;;4968780;28;20034;-84
2023/07/26 09:59:14;;;;;;;7.13;3.20;;;17.10;99.90;;;;;;4984210;28;20030;-83
2023/07/26 10:01:45;;;;;;;7.88;3.80;;;17.20;99.90;;;;;;4984479;28;20057;-83
2023/07/26 10:04:15;;;;;;;7.00;2.80;;;17.30;99.90;;;;;;4984558;28;20038;-83
2023/07/26 10:06:42;;;;;;;7.32;3.58;;;17.40;99.90;;;;;;4983779;28;20034;-83
2023/07/26 10:09:16;;;;;;;7.75;4.00;;;17.40;99.90;;;;;;4984298;28;20045;-84
2023/07/26 10:11:43;;;;;;;8.05;4.10;;;17.60;99.90;;;;;;4984224;28;20042;-84
2023/07/26 10:14:12;;;;;;;7.30;3.70;;;17.70;99.90;;;;;;4970082;28;20122;-83
2023/07/26 10:16:39;;;;;;;8.10;4.10;;;17.90;99.90;;;;;;4984219;28;20117;-83
2023/07/26 10:19:06;;;;;;;7.70;3.90;;;17.90;99.90;;;;;;4983536;28;20110;-83
2023/07/26 10:21:35;;;;;;;7.68;3.95;;;18.00;99.90;;;;;;4985692;28;20038;-83
2023/07/26 10:24:01;;;;;;;8.80;3.80;;;18.10;99.90;;;;;;4985533;28;20038;-83
2023/07/26 10:26:30;;;;;;;9.25;3.90;;;18.10;99.90;;;;;;4983098;28;20042;-83
2023/07/26 10:28:59;;;;;;;8.07;3.92;;;18.20;99.90;;;;;;4984868;28;20125;-83
2023/07/26 10:31:32;;;;;;;8.32;3.97;;;18.10;99.90;;;;;;4969361;28;20088;-83
2023/07/26 10:33:58;;;;;;;7.85;3.45;;;18.10;99.90;;;;;;4968946;28;20125;-84
2023/07/26 10:36:29;;;;;;;7.90;3.92;;;18.30;99.90;;;;;;4985349;28;20033;-84
2023/07/26 10:38:54;;;;;;;7.70;3.90;;;18.30;99.90;;;;;;4984316;28;20042;-84
2023/07/26 10:41:26;;;;;;;8.00;4.28;;;18.40;99.90;;;;;;4982883;28;20038;-84
2023/07/26 10:44:21;;;;;;;8.18;4.20;;;18.50;99.90;;;;;;4967307;28;20048;-84
2023/07/26 10:47:00;;;;;;;8.02;3.72;;;18.60;99.90;;;;;;4956734;28;20466;-84
2023/07/26 10:49:28;;;;;;;7.22;3.60;;;18.80;99.90;;;;;;4975258;28;20069;-84
2023/07/26 10:51:59;;;;;;;8.55;3.50;;;18.70;99.90;;;;;;4975297;28;20074;-84
2023/07/26 10:54:38;;;;;;;6.80;2.88;;;18.90;99.90;;;;;;4959141;28;20043;-84
2023/07/26 10:57:13;;;;;;;7.38;3.20;;;18.90;99.90;;;;;;4958289;28;20042;-84
2023/07/26 11:00:16;;;;;;;7.32;3.20;;;18.90;99.90;;;;;;4999951;28;20518;-84
2023/07/26 11:02:46;;;;;;;8.05;3.92;;;18.90;99.90;;;;;;4944201;28;20053;-84
2023/07/26 11:05:19;;;;;;;7.65;3.42;;;19.00;99.90;;;;;;4943669;28;20142;-84
2023/07/26 11:08:00;;;;;;;7.47;3.55;;;19.00;99.90;;;;;;4942762;28;20050;-84
2023/07/26 11:10:36;;;;;;;7.72;3.33;;;19.10;99.90;;;;;;4940475;28;20059;-84
2023/07/26 11:13:17;;;;;;;7.32;3.33;;;19.10;99.90;;;;;;4942545;28;20047;-84
2023/07/26 11:15:48;;;;;;;7.65;3.00;;;19.20;99.90;;;;;;4941813;28;20045;-84
2023/07/26 11:18:15;;;;;;;6.82;2.90;;;19.30;99.90;;;;;;4927118;28;20504;-84
2023/07/26 11:20:46;;;;;;;7.75;2.80;;;19.40;99.90;;;;;;4929300;28;20050;-84
2023/07/26 11:23:22;;;;;;;6.90;2.80;;;19.60;99.90;;;;;;4943125;28;20074;-84
2023/07/26 11:25:50;;;;;;;6.07;2.13;;;19.50;98.80;;;;;;4939427;29;20162;-84
2023/07/26 11:28:17;;;;;;;8.05;3.60;;;19.40;99.90;;;;;;4921888;28;20043;-84
2023/07/26 11:30:54;;;;;;;6.88;3.00;;;19.20;99.90;;;;;;4942457;28;20043;-84
2023/07/26 11:33:29;;;;;;;10.48;3.65;;;19.00;99.50;;;;;;4926884;28;20125;-84
2023/07/26 11:35:55;;;;;;;8.00;3.22;;;18.60;99.90;;;;;;4940075;28;20054;-84
2023/07/26 11:38:20;;;;;;;9.25;3.45;;;18.20;99.90;;;;;;4963488;28;20058;-84
2023/07/26 11:40:46;;;;;;;6.32;2.60;;;18.10;99.90;;;;;;4965721;28;20038;-84
2023/07/26 11:43:12;;;;;;;6.45;2.60;;;17.90;99.90;;;;;;4983532;28;20462;-84
2023/07/26 11:45:41;;;;;;;7.22;3.28;;;17.90;99.90;;;;;;4967667;28;20065;-84
2023/07/26 11:48:09;;;;;;;7.28;3.05;;;17.70;99.90;;;;;;4965720;28;20081;-84
2023/07/26 11:50:36;;;;;;;8.45;3.53;;;17.60;99.90;;;;;;4967008;28;20116;-84
2023/07/26 11:53:06;;;;;;;8.63;4.03;;;17.50;99.90;;;;;;4984247;28;20038;-84
2023/07/26 11:55:33;;;;;;;9.52;5.10;;;17.60;99.90;;;;;;5014724;28;20077;-84
2023/07/26 11:58:03;;;;;;;7.10;3.45;;;17.80;99.90;;;;;;4966266;28;20526;-84
2023/07/26 12:00:34;;;;;;;9.48;4.65;;;17.90;99.90;;;;;;4976745;28;20101;-83
2023/07/26 12:03:04;;;;;;;8.18;3.80;;;18.10;99.90;;;;;;4973574;28;20080;-84
2023/07/26 12:05:30;;;;;;;6.10;2.70;;;18.30;99.90;;;;;;4973416;28;20042;-85
2023/07/26 12:07:58;;;;;;;8.18;3.20;;;18.40;99.90;;;;;;4972790;28;20050;-85
2023/07/26 12:10:28;;;;;;;7.40;3.53;;;18.70;99.90;;;;;;4957651;28;20508;-85
2023/07/26 12:12:55;;;;;;;5.97;2.60;;;18.80;99.90;;;;;;4973717;28;20097;-85
2023/07/26 12:15:21;;;;;;;7.80;3.38;;;18.90;99.90;;;;;;4972523;28;20042;-85
2023/07/26 12:18:00;;;;;;;6.88;3.13;;;19.10;99.90;;;;;;4973575;28;20040;-86
2023/07/26 12:20:27;;;;;;;5.15;2.15;;;19.20;99.90;;;;;;4973979;28;20042;-85
2023/07/26 12:22:55;;;;;;;5.45;2.35;;;19.20;99.90;;;;;;4957153;28;20195;-85
2023/07/26 12:25:33;;;;;;;5.05;1.60;;;19.40;99.90;;;;;;4973757;28;20046;-85
2023/07/26 12:27:58;;;;;;;5.43;1.67;;;19.60;99.90;;;;;;4978282;28;20050;-85
2023/07/26 12:30:26;;;;;;;3.90;1.50;;;19.60;99.90;;;;;;4988009;28;20096;-85
2023/07/26 12:33:11;;;;;;;3.75;1.73;;;19.70;99.90;;;;;;4976441;28;20046;-84
2023/07/26 12:35:38;;;;;;;3.85;1.60;;;19.60;99.90;;;;;;4992501;28;20044;-84
2023/07/26 12:38:23;;;;;;;4.55;1.60;;;19.50;99.90;;;;;;4975852;28;20509;-85
2023/07/26 12:40:51;;;;;;;4.18;1.70;;;19.60;99.90;;;;;;4996363;28;20124;-88
2023/07/26 12:43:20;;;;;;;5.72;2.10;;;19.80;99.90;;;;;;4996629;28;20091;-87
2023/07/26 12:45:45;;;;;;;6.38;2.20;;;19.80;99.90;;;;;;4997345;28;20559;-86